Airport View

Enter AWOS ICAO identifier for current METAR.

ex. KFNL

KBIF 251558Z AUTO 15006KT 10SM CLR 23/04 A2996 RMK AO2 SLP085 T02310040 $

25 Oct 2020 16:33

Other Area AWOS: KELP - MMCS - KDNA - K5T6

TAF KBIF 251406Z 2514/2620 VRB06KT 9999 SKC 510013 QNH2994INS BECMG 2518/2519 23015G28KT 9999 SKC 510053 QNH2981INS BECMG 2523/2524 24012KT 9999 FEW230 520053 QNH2979INS TX31/2521Z TN17/2514Z